sensor_id;sensor_type;location;lat;lon;timestamp;temperature;humidity
77052;SHT30;65980;44.898;8.602;2023-05-09T00:01:26;18.63;72.52
77052;SHT30;65980;44.898;8.602;2023-05-09T00:04:32;18.76;71.99
77052;SHT30;65980;44.898;8.602;2023-05-09T00:07:37;18.59;72.75
77052;SHT30;65980;44.898;8.602;2023-05-09T00:10:41;18.48;72.88
77052;SHT30;65980;44.898;8.602;2023-05-09T00:13:45;18.59;72.37
77052;SHT30;65980;44.898;8.602;2023-05-09T00:16:49;18.55;72.78
77052;SHT30;65980;44.898;8.602;2023-05-09T00:19:53;18.61;72.57
77052;SHT30;65980;44.898;8.602;2023-05-09T00:22:58;18.38;73.22
77052;SHT30;65980;44.898;8.602;2023-05-09T00:26:03;18.24;73.74
77052;SHT30;65980;44.898;8.602;2023-05-09T00:29:14;18.21;74.17
77052;SHT30;65980;44.898;8.602;2023-05-09T00:32:22;18.03;74.97
77052;SHT30;65980;44.898;8.602;2023-05-09T00:35:28;18.21;74.29
77052;SHT30;65980;44.898;8.602;2023-05-09T00:38:34;18.41;73.53
77052;SHT30;65980;44.898;8.602;2023-05-09T00:41:38;18.49;73.10
77052;SHT30;65980;44.898;8.602;2023-05-09T00:44:42;18.37;73.88
77052;SHT30;65980;44.898;8.602;2023-05-09T00:47:46;18.01;74.91
77052;SHT30;65980;44.898;8.602;2023-05-09T00:50:50;17.93;75.14
77052;SHT30;65980;44.898;8.602;2023-05-09T00:53:55;17.90;75.07
77052;SHT30;65980;44.898;8.602;2023-05-09T00:56:59;18.03;74.58
77052;SHT30;65980;44.898;8.602;2023-05-09T01:00:03;18.17;73.74
77052;SHT30;65980;44.898;8.602;2023-05-09T01:03:08;18.01;74.14
77052;SHT30;65980;44.898;8.602;2023-05-09T01:09:54;18.14;73.83
77052;SHT30;65980;44.898;8.602;2023-05-09T01:16:31;18.28;73.19
77052;SHT30;65980;44.898;8.602;2023-05-09T01:22:46;18.40;72.70
77052;SHT30;65980;44.898;8.602;2023-05-09T01:26:01;18.42;72.57
77052;SHT30;65980;44.898;8.602;2023-05-09T01:32:09;17.86;74.52
77052;SHT30;65980;44.898;8.602;2023-05-09T01:35:14;17.75;75.18
77052;SHT30;65980;44.898;8.602;2023-05-09T01:38:21;18.03;74.13
77052;SHT30;65980;44.898;8.602;2023-05-09T01:41:27;17.94;74.27
77052;SHT30;65980;44.898;8.602;2023-05-09T01:44:34;17.73;74.87
77052;SHT30;65980;44.898;8.602;2023-05-09T01:47:40;17.87;74.42
77052;SHT30;65980;44.898;8.602;2023-05-09T01:50:45;17.70;74.79
77052;SHT30;65980;44.898;8.602;2023-05-09T01:53:57;17.41;75.79
77052;SHT30;65980;44.898;8.602;2023-05-09T01:57:04;17.58;75.30
77052;SHT30;65980;44.898;8.602;2023-05-09T02:00:09;17.44;75.36
77052;SHT30;65980;44.898;8.602;2023-05-09T02:03:20;17.48;75.09
77052;SHT30;65980;44.898;8.602;2023-05-09T02:06:26;17.75;74.35
77052;SHT30;65980;44.898;8.602;2023-05-09T02:09:34;17.90;73.57
77052;SHT30;65980;44.898;8.602;2023-05-09T02:12:38;17.28;75.83
77052;SHT30;65980;44.898;8.602;2023-05-09T02:15:42;17.62;74.74
77052;SHT30;65980;44.898;8.602;2023-05-09T02:18:47;17.30;76.06
77052;SHT30;65980;44.898;8.602;2023-05-09T02:21:51;17.59;74.83
77052;SHT30;65980;44.898;8.602;2023-05-09T02:24:55;17.70;74.36
77052;SHT30;65980;44.898;8.602;2023-05-09T02:28:00;17.79;74.27
77052;SHT30;65980;44.898;8.602;2023-05-09T02:31:04;17.83;74.05
77052;SHT30;65980;44.898;8.602;2023-05-09T02:34:12;17.75;74.22
77052;SHT30;65980;44.898;8.602;2023-05-09T02:37:16;17.80;73.78
77052;SHT30;65980;44.898;8.602;2023-05-09T02:40:21;17.82;73.65
77052;SHT30;65980;44.898;8.602;2023-05-09T02:43:25;17.62;74.32
77052;SHT30;65980;44.898;8.602;2023-05-09T02:46:29;17.69;74.32
77052;SHT30;65980;44.898;8.602;2023-05-09T02:49:33;17.56;74.81
77052;SHT30;65980;44.898;8.602;2023-05-09T02:52:39;17.69;74.31
77052;SHT30;65980;44.898;8.602;2023-05-09T02:55:43;17.78;74.16
77052;SHT30;65980;44.898;8.602;2023-05-09T02:58:47;17.83;73.94
77052;SHT30;65980;44.898;8.602;2023-05-09T03:01:54;17.72;74.17
77052;SHT30;65980;44.898;8.602;2023-05-09T03:04:59;17.87;73.96
77052;SHT30;65980;44.898;8.602;2023-05-09T03:08:04;17.90;73.69
77052;SHT30;65980;44.898;8.602;2023-05-09T03:11:10;17.96;73.24
77052;SHT30;65980;44.898;8.602;2023-05-09T03:14:16;17.42;74.85
77052;SHT30;65980;44.898;8.602;2023-05-09T03:17:20;17.56;74.84
77052;SHT30;65980;44.898;8.602;2023-05-09T03:20:26;17.78;74.01
77052;SHT30;65980;44.898;8.602;2023-05-09T03:23:30;17.53;74.57
77052;SHT30;65980;44.898;8.602;2023-05-09T03:26:35;17.69;74.39
77052;SHT30;65980;44.898;8.602;2023-05-09T03:29:39;17.85;73.88
77052;SHT30;65980;44.898;8.602;2023-05-09T03:32:43;17.46;74.83
77052;SHT30;65980;44.898;8.602;2023-05-09T03:35:47;17.70;74.16
77052;SHT30;65980;44.898;8.602;2023-05-09T03:38:51;17.78;73.83
77052;SHT30;65980;44.898;8.602;2023-05-09T03:41:57;17.79;73.72
77052;SHT30;65980;44.898;8.602;2023-05-09T03:45:01;17.24;75.42
77052;SHT30;65980;44.898;8.602;2023-05-09T03:48:06;17.55;74.42
77052;SHT30;65980;44.898;8.602;2023-05-09T03:51:13;17.59;74.38
77052;SHT30;65980;44.898;8.602;2023-05-09T03:54:20;17.66;74.15
77052;SHT30;65980;44.898;8.602;2023-05-09T03:57:25;17.69;73.93
77052;SHT30;65980;44.898;8.602;2023-05-09T04:00:33;17.66;74.09
77052;SHT30;65980;44.898;8.602;2023-05-09T04:03:45;17.68;74.13
77052;SHT30;65980;44.898;8.602;2023-05-09T04:06:52;17.62;74.07
77052;SHT30;65980;44.898;8.602;2023-05-09T04:09:57;17.53;74.41
77052;SHT30;65980;44.898;8.602;2023-05-09T04:13:02;17.34;75.14
77052;SHT30;65980;44.898;8.602;2023-05-09T04:16:07;17.32;75.70
77052;SHT30;65980;44.898;8.602;2023-05-09T04:19:12;17.51;75.32
77052;SHT30;65980;44.898;8.602;2023-05-09T04:22:17;17.61;75.01
77052;SHT30;65980;44.898;8.602;2023-05-09T04:25:21;17.61;74.99
77052;SHT30;65980;44.898;8.602;2023-05-09T04:28:27;17.46;75.36
77052;SHT30;65980;44.898;8.602;2023-05-09T04:31:33;17.46;75.48
77052;SHT30;65980;44.898;8.602;2023-05-09T04:34:39;17.32;75.45
77052;SHT30;65980;44.898;8.602;2023-05-09T04:37:51;17.07;76.72
77052;SHT30;65980;44.898;8.602;2023-05-09T04:40:55;17.07;76.84
77052;SHT30;65980;44.898;8.602;2023-05-09T04:43:59;16.93;77.14
77052;SHT30;65980;44.898;8.602;2023-05-09T04:47:04;17.00;77.01
77052;SHT30;65980;44.898;8.602;2023-05-09T04:50:08;16.96;77.33
77052;SHT30;65980;44.898;8.602;2023-05-09T04:53:13;17.00;77.39
77052;SHT30;65980;44.898;8.602;2023-05-09T04:56:18;16.91;77.79
77052;SHT30;65980;44.898;8.602;2023-05-09T04:59:24;16.89;77.90
77052;SHT30;65980;44.898;8.602;2023-05-09T05:02:29;17.18;76.97
77052;SHT30;65980;44.898;8.602;2023-05-09T05:05:37;17.11;76.68
77052;SHT30;65980;44.898;8.602;2023-05-09T05:08:44;17.45;75.87
77052;SHT30;65980;44.898;8.602;2023-05-09T05:11:48;17.56;75.56
77052;SHT30;65980;44.898;8.602;2023-05-09T05:14:52;17.61;75.47
77052;SHT30;65980;44.898;8.602;2023-05-09T05:17:59;17.75;75.17
77052;SHT30;65980;44.898;8.602;2023-05-09T05:21:08;17.91;74.64
77052;SHT30;65980;44.898;8.602;2023-05-09T05:24:14;18.01;74.44
77052;SHT30;65980;44.898;8.602;2023-05-09T05:27:22;18.06;74.30
77052;SHT30;65980;44.898;8.602;2023-05-09T05:30:28;18.18;74.20
77052;SHT30;65980;44.898;8.602;2023-05-09T05:33:33;18.00;74.57
77052;SHT30;65980;44.898;8.602;2023-05-09T05:36:49;18.03;74.54
77052;SHT30;65980;44.898;8.602;2023-05-09T05:39:54;18.16;72.30
77052;SHT30;65980;44.898;8.602;2023-05-09T05:43:02;17.76;72.54
77052;SHT30;65980;44.898;8.602;2023-05-09T05:46:18;17.78;73.52
77052;SHT30;65980;44.898;8.602;2023-05-09T05:49:29;17.58;73.77
77052;SHT30;65980;44.898;8.602;2023-05-09T05:52:35;16.79;76.19
77052;SHT30;65980;44.898;8.602;2023-05-09T05:55:40;16.82;77.12
77052;SHT30;65980;44.898;8.602;2023-05-09T05:58:45;17.34;75.35
77052;SHT30;65980;44.898;8.602;2023-05-09T06:01:51;17.65;74.43
77052;SHT30;65980;44.898;8.602;2023-05-09T06:05:03;17.79;74.09
77052;SHT30;65980;44.898;8.602;2023-05-09T06:08:10;17.96;73.85
77052;SHT30;65980;44.898;8.602;2023-05-09T06:11:14;18.04;73.52
77052;SHT30;65980;44.898;8.602;2023-05-09T06:14:19;17.99;73.76
77052;SHT30;65980;44.898;8.602;2023-05-09T06:17:23;17.99;73.78
77052;SHT30;65980;44.898;8.602;2023-05-09T06:23:56;18.11;73.44
77052;SHT30;65980;44.898;8.602;2023-05-09T06:27:00;18.10;73.34
77052;SHT30;65980;44.898;8.602;2023-05-09T06:30:04;18.18;73.23
77052;SHT30;65980;44.898;8.602;2023-05-09T06:33:09;18.10;73.50
77052;SHT30;65980;44.898;8.602;2023-05-09T06:36:13;18.07;73.66
77052;SHT30;65980;44.898;8.602;2023-05-09T06:39:17;18.10;73.55
77052;SHT30;65980;44.898;8.602;2023-05-09T06:42:24;17.85;74.08
77052;SHT30;65980;44.898;8.602;2023-05-09T06:45:29;17.90;73.97
77052;SHT30;65980;44.898;8.602;2023-05-09T06:48:34;18.08;73.50
77052;SHT30;65980;44.898;8.602;2023-05-09T06:51:38;18.20;73.66
77052;SHT30;65980;44.898;8.602;2023-05-09T06:54:42;18.14;73.12
77052;SHT30;65980;44.898;8.602;2023-05-09T06:57:46;17.59;75.63
77052;SHT30;65980;44.898;8.602;2023-05-09T07:00:52;17.86;75.12
77052;SHT30;65980;44.898;8.602;2023-05-09T07:03:57;17.90;74.80
77052;SHT30;65980;44.898;8.602;2023-05-09T07:07:05;18.14;74.31
77052;SHT30;65980;44.898;8.602;2023-05-09T07:10:09;18.16;73.40
77052;SHT30;65980;44.898;8.602;2023-05-09T07:13:12;18.28;73.39
77052;SHT30;65980;44.898;8.602;2023-05-09T07:16:17;18.27;73.85
77052;SHT30;65980;44.898;8.602;2023-05-09T07:19:20;18.33;73.46
77052;SHT30;65980;44.898;8.602;2023-05-09T07:22:25;18.70;72.44
77052;SHT30;65980;44.898;8.602;2023-05-09T07:25:29;18.48;73.05
77052;SHT30;65980;44.898;8.602;2023-05-09T07:28:35;18.48;73.08
77052;SHT30;65980;44.898;8.602;2023-05-09T07:31:40;18.58;73.24
77052;SHT30;65980;44.898;8.602;2023-05-09T07:34:44;18.70;72.68
77052;SHT30;65980;44.898;8.602;2023-05-09T07:37:49;18.68;73.00
77052;SHT30;65980;44.898;8.602;2023-05-09T07:41:00;18.90;72.02
77052;SHT30;65980;44.898;8.602;2023-05-09T07:44:45;19.13;71.73
77052;SHT30;65980;44.898;8.602;2023-05-09T07:47:50;19.25;71.58
77052;SHT30;65980;44.898;8.602;2023-05-09T07:50:55;19.63;69.97
77052;SHT30;65980;44.898;8.602;2023-05-09T07:58:57;19.92;68.79
77052;SHT30;65980;44.898;8.602;2023-05-09T08:02:05;19.92;69.07
77052;SHT30;65980;44.898;8.602;2023-05-09T08:05:16;19.72;69.50
77052;SHT30;65980;44.898;8.602;2023-05-09T08:13:06;20.17;68.03
77052;SHT30;65980;44.898;8.602;2023-05-09T08:19:46;19.92;69.02
77052;SHT30;65980;44.898;8.602;2023-05-09T08:22:52;20.20;68.64
77052;SHT30;65980;44.898;8.602;2023-05-09T08:25:57;20.06;68.14
77052;SHT30;65980;44.898;8.602;2023-05-09T08:29:10;19.69;69.23
77052;SHT30;65980;44.898;8.602;2023-05-09T08:32:16;19.92;69.31
77052;SHT30;65980;44.898;8.602;2023-05-09T08:35:33;19.62;70.04
77052;SHT30;65980;44.898;8.602;2023-05-09T08:38:40;19.55;69.71
77052;SHT30;65980;44.898;8.602;2023-05-09T08:41:45;20.10;68.28
77052;SHT30;65980;44.898;8.602;2023-05-09T08:45:10;20.07;68.45
77052;SHT30;65980;44.898;8.602;2023-05-09T08:48:24;20.21;67.82
77052;SHT30;65980;44.898;8.602;2023-05-09T08:51:30;20.34;67.75
77052;SHT30;65980;44.898;8.602;2023-05-09T08:54:35;20.17;68.31
77052;SHT30;65980;44.898;8.602;2023-05-09T08:57:40;20.38;67.88
77052;SHT30;65980;44.898;8.602;2023-05-09T09:00:47;20.64;66.48
77052;SHT30;65980;44.898;8.602;2023-05-09T09:08:05;20.79;65.86
77052;SHT30;65980;44.898;8.602;2023-05-09T09:11:13;20.87;65.86
77052;SHT30;65980;44.898;8.602;2023-05-09T09:18:11;20.87;64.45
77052;SHT30;65980;44.898;8.602;2023-05-09T09:21:33;20.95;64.08
77052;SHT30;65980;44.898;8.602;2023-05-09T09:24:44;20.64;65.29
77052;SHT30;65980;44.898;8.602;2023-05-09T09:28:46;20.97;64.62
77052;SHT30;65980;44.898;8.602;2023-05-09T09:33:08;20.96;64.38
77052;SHT30;65980;44.898;8.602;2023-05-09T09:37:04;20.90;64.38
77052;SHT30;65980;44.898;8.602;2023-05-09T09:40:11;20.93;64.18
77052;SHT30;65980;44.898;8.602;2023-05-09T09:43:16;20.99;64.63
77052;SHT30;65980;44.898;8.602;2023-05-09T09:46:21;20.89;64.05
77052;SHT30;65980;44.898;8.602;2023-05-09T09:49:26;21.13;64.06
77052;SHT30;65980;44.898;8.602;2023-05-09T09:52:35;21.19;63.83
77052;SHT30;65980;44.898;8.602;2023-05-09T09:55:49;21.23;62.89
77052;SHT30;65980;44.898;8.602;2023-05-09T09:59:06;21.27;63.35
77052;SHT30;65980;44.898;8.602;2023-05-09T10:02:11;20.95;63.82
77052;SHT30;65980;44.898;8.602;2023-05-09T10:05:23;20.83;64.48
77052;SHT30;65980;44.898;8.602;2023-05-09T10:08:39;21.28;63.46
77052;SHT30;65980;44.898;8.602;2023-05-09T10:15:42;21.79;62.06
77052;SHT30;65980;44.898;8.602;2023-05-09T10:18:47;21.89;61.96
77052;SHT30;65980;44.898;8.602;2023-05-09T10:21:52;21.92;61.75
77052;SHT30;65980;44.898;8.602;2023-05-09T10:25:04;22.23;61.03
77052;SHT30;65980;44.898;8.602;2023-05-09T10:28:14;22.21;60.29
77052;SHT30;65980;44.898;8.602;2023-05-09T10:31:21;22.14;61.27
77052;SHT30;65980;44.898;8.602;2023-05-09T10:34:26;22.89;59.25
77052;SHT30;65980;44.898;8.602;2023-05-09T10:37:36;23.24;58.33
77052;SHT30;65980;44.898;8.602;2023-05-09T10:40:54;23.36;57.17
77052;SHT30;65980;44.898;8.602;2023-05-09T10:44:24;23.10;57.71
77052;SHT30;65980;44.898;8.602;2023-05-09T10:48:01;23.24;57.15
77052;SHT30;65980;44.898;8.602;2023-05-09T10:51:10;23.20;57.22
77052;SHT30;65980;44.898;8.602;2023-05-09T10:57:51;23.37;57.18
77052;SHT30;65980;44.898;8.602;2023-05-09T11:04:47;23.62;56.61
77052;SHT30;65980;44.898;8.602;2023-05-09T11:11:23;23.28;57.80
77052;SHT30;65980;44.898;8.602;2023-05-09T11:14:30;23.50;56.85
77052;SHT30;65980;44.898;8.602;2023-05-09T11:17:38;23.66;55.90
77052;SHT30;65980;44.898;8.602;2023-05-09T11:20:43;23.11;56.80
77052;SHT30;65980;44.898;8.602;2023-05-09T11:23:48;23.92;55.57
77052;SHT30;65980;44.898;8.602;2023-05-09T11:26:53;24.43;54.76
77052;SHT30;65980;44.898;8.602;2023-05-09T11:29:58;24.54;54.70
77052;SHT30;65980;44.898;8.602;2023-05-09T11:33:23;24.64;53.12
77052;SHT30;65980;44.898;8.602;2023-05-09T11:36:28;24.67;52.96
77052;SHT30;65980;44.898;8.602;2023-05-09T11:39:33;24.96;52.55
77052;SHT30;65980;44.898;8.602;2023-05-09T11:42:36;24.65;53.32
77052;SHT30;65980;44.898;8.602;2023-05-09T11:45:43;24.50;53.81
77052;SHT30;65980;44.898;8.602;2023-05-09T11:48:49;24.89;52.90
77052;SHT30;65980;44.898;8.602;2023-05-09T11:51:53;24.60;53.48
77052;SHT30;65980;44.898;8.602;2023-05-09T11:54:57;24.31;53.66
77052;SHT30;65980;44.898;8.602;2023-05-09T11:58:00;24.33;54.29
77052;SHT30;65980;44.898;8.602;2023-05-09T12:01:05;24.37;54.07
77052;SHT30;65980;44.898;8.602;2023-05-09T12:04:10;24.16;55.04
77052;SHT30;65980;44.898;8.602;2023-05-09T12:07:15;24.47;53.44
77052;SHT30;65980;44.898;8.602;2023-05-09T12:10:20;24.47;54.00
77052;SHT30;65980;44.898;8.602;2023-05-09T12:13:25;24.53;54.40
77052;SHT30;65980;44.898;8.602;2023-05-09T12:16:45;24.58;54.30
77052;SHT30;65980;44.898;8.602;2023-05-09T12:19:50;24.06;54.60
77052;SHT30;65980;44.898;8.602;2023-05-09T12:22:58;24.33;54.72
77052;SHT30;65980;44.898;8.602;2023-05-09T12:26:03;24.92;53.26
77052;SHT30;65980;44.898;8.602;2023-05-09T12:29:06;24.67;53.19
77052;SHT30;65980;44.898;8.602;2023-05-09T12:32:11;24.86;53.19
77052;SHT30;65980;44.898;8.602;2023-05-09T12:35:16;25.03;52.37
77052;SHT30;65980;44.898;8.602;2023-05-09T12:38:20;24.44;52.71
77052;SHT30;65980;44.898;8.602;2023-05-09T12:41:25;24.44;53.17
77052;SHT30;65980;44.898;8.602;2023-05-09T12:44:32;24.37;53.95
77052;SHT30;65980;44.898;8.602;2023-05-09T12:47:38;24.78;53.62
77052;SHT30;65980;44.898;8.602;2023-05-09T12:50:45;24.58;53.30
77052;SHT30;65980;44.898;8.602;2023-05-09T12:53:49;24.64;51.58
77052;SHT30;65980;44.898;8.602;2023-05-09T12:56:55;24.88;51.23
77052;SHT30;65980;44.898;8.602;2023-05-09T13:00:03;24.81;51.53
77052;SHT30;65980;44.898;8.602;2023-05-09T13:03:22;24.58;51.78
77052;SHT30;65980;44.898;8.602;2023-05-09T13:06:28;24.81;50.08
77052;SHT30;65980;44.898;8.602;2023-05-09T13:09:35;24.67;51.16
77052;SHT30;65980;44.898;8.602;2023-05-09T13:12:42;24.72;52.16
77052;SHT30;65980;44.898;8.602;2023-05-09T13:16:04;24.99;51.89
77052;SHT30;65980;44.898;8.602;2023-05-09T13:19:08;24.81;51.35
77052;SHT30;65980;44.898;8.602;2023-05-09T13:22:13;24.60;52.08
77052;SHT30;65980;44.898;8.602;2023-05-09T13:25:16;24.88;51.12
77052;SHT30;65980;44.898;8.602;2023-05-09T13:28:28;24.88;51.61
77052;SHT30;65980;44.898;8.602;2023-05-09T13:31:32;25.03;51.16
77052;SHT30;65980;44.898;8.602;2023-05-09T13:34:37;24.88;50.20
77052;SHT30;65980;44.898;8.602;2023-05-09T13:37:44;25.09;50.15
77052;SHT30;65980;44.898;8.602;2023-05-09T13:40:51;25.33;49.72
77052;SHT30;65980;44.898;8.602;2023-05-09T13:43:56;24.63;51.09
77052;SHT30;65980;44.898;8.602;2023-05-09T13:47:01;24.23;51.49
77052;SHT30;65980;44.898;8.602;2023-05-09T13:50:05;24.69;51.49
77052;SHT30;65980;44.898;8.602;2023-05-09T13:53:10;24.85;50.62
77052;SHT30;65980;44.898;8.602;2023-05-09T13:56:20;24.86;49.90
77052;SHT30;65980;44.898;8.602;2023-05-09T13:59:25;24.92;50.83
77052;SHT30;65980;44.898;8.602;2023-05-09T14:02:29;24.92;50.30
77052;SHT30;65980;44.898;8.602;2023-05-09T14:05:33;24.41;51.58
77052;SHT30;65980;44.898;8.602;2023-05-09T14:08:38;24.41;51.39
77052;SHT30;65980;44.898;8.602;2023-05-09T14:11:42;24.37;51.54
77052;SHT30;65980;44.898;8.602;2023-05-09T14:14:47;24.23;51.40
77052;SHT30;65980;44.898;8.602;2023-05-09T14:17:52;24.63;50.55
77052;SHT30;65980;44.898;8.602;2023-05-09T14:20:56;24.45;51.28
77052;SHT30;65980;44.898;8.602;2023-05-09T14:24:01;24.44;50.60
77052;SHT30;65980;44.898;8.602;2023-05-09T14:27:05;24.64;49.84
77052;SHT30;65980;44.898;8.602;2023-05-09T14:30:09;24.69;50.71
77052;SHT30;65980;44.898;8.602;2023-05-09T14:33:13;24.67;50.94
77052;SHT30;65980;44.898;8.602;2023-05-09T14:36:18;24.89;50.13
77052;SHT30;65980;44.898;8.602;2023-05-09T14:39:23;24.61;50.16
77052;SHT30;65980;44.898;8.602;2023-05-09T14:42:32;24.67;49.56
77052;SHT30;65980;44.898;8.602;2023-05-09T14:45:37;24.43;50.64
77052;SHT30;65980;44.898;8.602;2023-05-09T14:48:43;24.51;50.89
77052;SHT30;65980;44.898;8.602;2023-05-09T14:51:47;24.02;50.74
77052;SHT30;65980;44.898;8.602;2023-05-09T14:54:52;24.19;50.50
77052;SHT30;65980;44.898;8.602;2023-05-09T14:57:56;24.16;50.52
77052;SHT30;65980;44.898;8.602;2023-05-09T15:01:02;23.95;50.71
77052;SHT30;65980;44.898;8.602;2023-05-09T15:04:34;23.96;51.18
77052;SHT30;65980;44.898;8.602;2023-05-09T15:07:39;23.82;51.16
77052;SHT30;65980;44.898;8.602;2023-05-09T15:10:46;23.71;51.78
77052;SHT30;65980;44.898;8.602;2023-05-09T15:13:51;23.69;52.02
77052;SHT30;65980;44.898;8.602;2023-05-09T15:17:00;23.61;52.13
77052;SHT30;65980;44.898;8.602;2023-05-09T15:20:10;23.36;52.65
77052;SHT30;65980;44.898;8.602;2023-05-09T15:23:15;23.57;52.34
77052;SHT30;65980;44.898;8.602;2023-05-09T15:26:30;22.82;55.66
77052;SHT30;65980;44.898;8.602;2023-05-09T15:30:05;22.25;57.83
77052;SHT30;65980;44.898;8.602;2023-05-09T15:33:10;21.82;59.54
77052;SHT30;65980;44.898;8.602;2023-05-09T15:36:15;21.38;61.16
77052;SHT30;65980;44.898;8.602;2023-05-09T15:39:20;20.97;62.29
77052;SHT30;65980;44.898;8.602;2023-05-09T15:42:30;21.06;62.60
77052;SHT30;65980;44.898;8.602;2023-05-09T15:45:35;20.99;66.01
77052;SHT30;65980;44.898;8.602;2023-05-09T15:48:50;20.65;69.14
77052;SHT30;65980;44.898;8.602;2023-05-09T15:51:54;20.44;70.89
77052;SHT30;65980;44.898;8.602;2023-05-09T15:54:58;20.09;72.68
77052;SHT30;65980;44.898;8.602;2023-05-09T15:58:03;19.82;73.82
77052;SHT30;65980;44.898;8.602;2023-05-09T16:01:09;19.76;74.30
77052;SHT30;65980;44.898;8.602;2023-05-09T16:04:15;19.69;75.51
77052;SHT30;65980;44.898;8.602;2023-05-09T16:07:31;19.59;73.65
77052;SHT30;65980;44.898;8.602;2023-05-09T16:10:41;19.24;72.73
77052;SHT30;65980;44.898;8.602;2023-05-09T16:13:45;19.30;73.61
77052;SHT30;65980;44.898;8.602;2023-05-09T16:16:53;19.20;75.22
77052;SHT30;65980;44.898;8.602;2023-05-09T16:23:34;18.82;77.76
77052;SHT30;65980;44.898;8.602;2023-05-09T16:30:09;18.79;78.96
77052;SHT30;65980;44.898;8.602;2023-05-09T16:33:13;19.08;78.04
77052;SHT30;65980;44.898;8.602;2023-05-09T16:40:19;19.10;77.90
77052;SHT30;65980;44.898;8.602;2023-05-09T16:47:31;19.17;76.85
77052;SHT30;65980;44.898;8.602;2023-05-09T16:51:05;18.96;76.76
77052;SHT30;65980;44.898;8.602;2023-05-09T17:01:23;18.95;79.73
77052;SHT30;65980;44.898;8.602;2023-05-09T17:04:48;18.68;80.89
77052;SHT30;65980;44.898;8.602;2023-05-09T17:15:15;19.21;80.02
77052;SHT30;65980;44.898;8.602;2023-05-09T17:18:23;19.27;79.94
77052;SHT30;65980;44.898;8.602;2023-05-09T17:21:27;19.15;78.72
77052;SHT30;65980;44.898;8.602;2023-05-09T17:28:02;18.65;80.88
77052;SHT30;65980;44.898;8.602;2023-05-09T17:31:12;18.86;80.14
77052;SHT30;65980;44.898;8.602;2023-05-09T17:34:36;18.90;79.59
77052;SHT30;65980;44.898;8.602;2023-05-09T17:37:44;18.79;79.86
77052;SHT30;65980;44.898;8.602;2023-05-09T17:48:49;18.63;80.88
77052;SHT30;65980;44.898;8.602;2023-05-09T17:52:05;18.52;80.73
77052;SHT30;65980;44.898;8.602;2023-05-09T17:58:48;18.89;80.09
77052;SHT30;65980;44.898;8.602;2023-05-09T18:02:12;18.40;80.55
77052;SHT30;65980;44.898;8.602;2023-05-09T18:05:19;18.65;80.16
77052;SHT30;65980;44.898;8.602;2023-05-09T18:08:23;18.80;79.78
77052;SHT30;65980;44.898;8.602;2023-05-09T18:11:28;18.90;79.74
77052;SHT30;65980;44.898;8.602;2023-05-09T18:14:33;18.96;79.38
77052;SHT30;65980;44.898;8.602;2023-05-09T18:17:37;18.73;79.91
77052;SHT30;65980;44.898;8.602;2023-05-09T18:20:41;18.80;80.04
77052;SHT30;65980;44.898;8.602;2023-05-09T18:23:45;18.58;80.55
77052;SHT30;65980;44.898;8.602;2023-05-09T18:26:49;18.47;81.76
77052;SHT30;65980;44.898;8.602;2023-05-09T18:29:53;18.65;81.24
77052;SHT30;65980;44.898;8.602;2023-05-09T18:32:58;18.70;81.16
77052;SHT30;65980;44.898;8.602;2023-05-09T18:36:05;18.68;81.64
77052;SHT30;65980;44.898;8.602;2023-05-09T18:39:11;18.61;81.34
77052;SHT30;65980;44.898;8.602;2023-05-09T18:42:16;18.61;82.00
77052;SHT30;65980;44.898;8.602;2023-05-09T18:45:21;18.61;82.30
77052;SHT30;65980;44.898;8.602;2023-05-09T18:48:28;18.38;83.41
77052;SHT30;65980;44.898;8.602;2023-05-09T18:51:33;18.47;82.74
77052;SHT30;65980;44.898;8.602;2023-05-09T18:54:38;18.41;82.99
77052;SHT30;65980;44.898;8.602;2023-05-09T18:57:44;18.34;83.58
77052;SHT30;65980;44.898;8.602;2023-05-09T19:00:49;18.47;83.05
77052;SHT30;65980;44.898;8.602;2023-05-09T19:03:55;18.35;83.12
77052;SHT30;65980;44.898;8.602;2023-05-09T19:07:00;18.20;83.93
77052;SHT30;65980;44.898;8.602;2023-05-09T19:10:04;18.14;84.24
77052;SHT30;65980;44.898;8.602;2023-05-09T19:13:11;18.20;83.75
77052;SHT30;65980;44.898;8.602;2023-05-09T19:16:15;18.08;84.72
77052;SHT30;65980;44.898;8.602;2023-05-09T19:19:22;18.06;84.70
77052;SHT30;65980;44.898;8.602;2023-05-09T19:22:26;18.18;84.63
77052;SHT30;65980;44.898;8.602;2023-05-09T19:25:31;18.20;84.47
77052;SHT30;65980;44.898;8.602;2023-05-09T19:28:36;18.14;85.28
77052;SHT30;65980;44.898;8.602;2023-05-09T19:31:41;18.20;84.71
77052;SHT30;65980;44.898;8.602;2023-05-09T19:34:45;18.34;84.14
77052;SHT30;65980;44.898;8.602;2023-05-09T19:37:50;18.38;83.87
77052;SHT30;65980;44.898;8.602;2023-05-09T19:40:54;18.35;83.62
77052;SHT30;65980;44.898;8.602;2023-05-09T19:43:59;18.30;83.86
77052;SHT30;65980;44.898;8.602;2023-05-09T19:47:03;18.31;83.71
77052;SHT30;65980;44.898;8.602;2023-05-09T19:50:08;18.21;84.41
77052;SHT30;65980;44.898;8.602;2023-05-09T19:53:12;18.25;84.07
77052;SHT30;65980;44.898;8.602;2023-05-09T19:56:16;18.27;83.95
77052;SHT30;65980;44.898;8.602;2023-05-09T19:59:21;18.23;84.84
77052;SHT30;65980;44.898;8.602;2023-05-09T20:02:25;18.21;84.77
77052;SHT30;65980;44.898;8.602;2023-05-09T20:05:29;18.33;84.37
77052;SHT30;65980;44.898;8.602;2023-05-09T20:08:33;18.38;84.05
77052;SHT30;65980;44.898;8.602;2023-05-09T20:11:37;18.28;84.39
77052;SHT30;65980;44.898;8.602;2023-05-09T20:14:42;18.18;84.87
77052;SHT30;65980;44.898;8.602;2023-05-09T20:17:46;18.17;85.29
77052;SHT30;65980;44.898;8.602;2023-05-09T20:20:51;18.10;85.47
77052;SHT30;65980;44.898;8.602;2023-05-09T20:23:57;18.08;85.14
77052;SHT30;65980;44.898;8.602;2023-05-09T20:27:01;18.18;84.96
77052;SHT30;65980;44.898;8.602;2023-05-09T20:30:05;18.16;84.86
77052;SHT30;65980;44.898;8.602;2023-05-09T20:33:09;18.23;84.97
77052;SHT30;65980;44.898;8.602;2023-05-09T20:36:13;18.21;85.10
77052;SHT30;65980;44.898;8.602;2023-05-09T20:39:18;18.20;85.07
77052;SHT30;65980;44.898;8.602;2023-05-09T20:42:23;18.27;84.74
77052;SHT30;65980;44.898;8.602;2023-05-09T20:45:28;18.24;84.96
77052;SHT30;65980;44.898;8.602;2023-05-09T20:48:32;18.16;85.14
77052;SHT30;65980;44.898;8.602;2023-05-09T20:51:36;18.20;84.84
77052;SHT30;65980;44.898;8.602;2023-05-09T20:54:40;18.18;84.42
77052;SHT30;65980;44.898;8.602;2023-05-09T20:57:44;18.16;83.42
77052;SHT30;65980;44.898;8.602;2023-05-09T21:00:49;17.87;82.31
77052;SHT30;65980;44.898;8.602;2023-05-09T21:03:53;17.97;82.66
77052;SHT30;65980;44.898;8.602;2023-05-09T21:06:57;17.99;82.85
77052;SHT30;65980;44.898;8.602;2023-05-09T21:10:02;17.91;82.51
77052;SHT30;65980;44.898;8.602;2023-05-09T21:13:06;17.90;82.08
77052;SHT30;65980;44.898;8.602;2023-05-09T21:16:11;17.91;80.76
77052;SHT30;65980;44.898;8.602;2023-05-09T21:19:15;17.79;80.87